Time;durP1;ratioP1;P1;durP2;ratioP2;P2;SDS_P1;SDS_P2;PMS_P1;PMS_P2;Temp;Humidity;BMP_temperature;BMP_pressure;BME280_temperature;BME280_humidity;BME280_pressure;Samples;Min_cycle;Max_cycle;Signal;HPM_P1;HPM_P2
2022/07/13 00:02:10;;;;;;;1.63;1.13;;;18.80;99.90;;;;;;4996226;28;20315;-84
2022/07/13 00:04:35;;;;;;;1.33;1.05;;;18.70;99.90;;;;;;4995670;28;20184;-84
2022/07/13 00:07:01;;;;;;;1.83;1.00;;;18.70;99.90;;;;;;4995406;28;20207;-84
2022/07/13 00:09:28;;;;;;;1.10;0.90;;;18.70;99.90;;;;;;4995582;28;20184;-85
2022/07/13 00:11:53;;;;;;;1.10;0.98;;;18.80;99.90;;;;;;4996979;28;20677;-85
2022/07/13 00:14:19;;;;;;;1.15;0.95;;;18.80;99.90;;;;;;4996795;28;20180;-85
2022/07/13 00:16:45;;;;;;;1.17;1.08;;;18.80;99.90;;;;;;4995429;28;20188;-85
2022/07/13 00:19:11;;;;;;;2.25;1.20;;;18.80;99.90;;;;;;4995637;28;20194;-84
2022/07/13 00:21:37;;;;;;;2.78;1.13;;;18.80;99.90;;;;;;4988516;28;20180;-85
2022/07/13 00:24:03;;;;;;;1.08;0.98;;;18.90;99.90;;;;;;4977098;28;20643;-85
2022/07/13 00:26:28;;;;;;;1.45;0.98;;;18.90;99.90;;;;;;4977050;28;20546;-84
2022/07/13 00:28:54;;;;;;;1.27;0.90;;;18.90;99.90;;;;;;4975902;28;20398;-84
2022/07/13 00:31:20;;;;;;;1.65;1.20;;;18.90;99.90;;;;;;4975820;28;20181;-85
2022/07/13 00:33:46;;;;;;;1.77;1.20;;;18.90;99.90;;;;;;4977028;28;20172;-83
2022/07/13 00:36:11;;;;;;;1.60;1.20;;;18.90;99.90;;;;;;4975471;28;20679;-84
2022/07/13 00:38:37;;;;;;;1.50;1.20;;;18.90;99.90;;;;;;4974822;28;20619;-84
2022/07/13 00:41:06;;;;;;;1.35;1.00;;;18.90;99.90;;;;;;4975395;28;20189;-83
2022/07/13 00:43:31;;;;;;;1.00;0.80;;;18.90;99.90;;;;;;4975646;28;20195;-84
2022/07/13 00:45:57;;;;;;;4.22;1.20;;;19.00;99.90;;;;;;4975519;28;20733;-85
2022/07/13 00:48:23;;;;;;;1.73;1.20;;;19.00;99.90;;;;;;4976716;28;20181;-85
2022/07/13 00:50:50;;;;;;;2.92;1.30;;;19.00;99.90;;;;;;4984300;28;20606;-85
2022/07/13 00:53:18;;;;;;;1.67;1.30;;;19.00;99.90;;;;;;4992746;28;20195;-84
2022/07/13 00:55:45;;;;;;;3.28;1.40;;;19.00;99.90;;;;;;4975424;28;20177;-85
2022/07/13 00:58:10;;;;;;;1.10;1.00;;;19.10;99.90;;;;;;4976607;28;20175;-84
2022/07/13 01:00:37;;;;;;;1.75;1.40;;;19.00;99.90;;;;;;4976524;28;20172;-84
2022/07/13 01:03:03;;;;;;;2.53;1.50;;;19.00;99.90;;;;;;4976534;28;20196;-84
2022/07/13 01:05:29;;;;;;;1.60;1.40;;;19.00;99.90;;;;;;4974942;28;20553;-83
2022/07/13 01:07:54;;;;;;;1.67;1.25;;;19.00;99.90;;;;;;4976352;28;20203;-85
2022/07/13 01:10:21;;;;;;;1.55;1.40;;;19.00;99.90;;;;;;4976345;28;20189;-84
2022/07/13 01:12:47;;;;;;;3.20;1.20;;;19.00;99.90;;;;;;4975446;28;20263;-84
2022/07/13 01:15:13;;;;;;;2.97;1.40;;;19.00;99.90;;;;;;4975003;28;20714;-85
2022/07/13 01:17:39;;;;;;;1.58;1.20;;;19.00;99.90;;;;;;4974802;28;20228;-85
2022/07/13 01:20:06;;;;;;;2.80;1.50;;;19.00;99.90;;;;;;4977756;28;20218;-84
2022/07/13 01:22:36;;;;;;;2.38;1.55;;;19.00;99.90;;;;;;4995533;28;20169;-84
2022/07/13 01:25:04;;;;;;;2.92;1.23;;;19.00;99.90;;;;;;4994188;28;20623;-83
2022/07/13 01:27:34;;;;;;;1.90;1.40;;;18.90;99.90;;;;;;4994173;28;20223;-85
2022/07/13 01:30:00;;;;;;;5.43;1.50;;;18.90;99.90;;;;;;4994084;28;20183;-85
2022/07/13 01:32:25;;;;;;;4.05;1.70;;;18.90;99.90;;;;;;4976075;28;20537;-85
2022/07/13 01:34:51;;;;;;;2.80;1.67;;;18.90;99.90;;;;;;4975784;28;20192;-84
2022/07/13 01:37:18;;;;;;;4.95;1.60;;;19.00;99.90;;;;;;4975541;28;20165;-85
2022/07/13 01:39:44;;;;;;;3.63;1.70;;;19.00;99.90;;;;;;4974703;28;20196;-86
2022/07/13 01:42:10;;;;;;;1.88;1.60;;;19.00;99.90;;;;;;4975907;28;20165;-84
2022/07/13 01:44:36;;;;;;;5.80;2.00;;;19.00;99.90;;;;;;4975762;28;20521;-84
2022/07/13 01:47:10;;;;;;;2.45;1.80;;;19.00;99.90;;;;;;4975575;28;20599;-83
2022/07/13 01:49:36;;;;;;;6.28;2.00;;;19.00;99.90;;;;;;4982567;28;20182;-84
2022/07/13 01:52:02;;;;;;;3.85;2.08;;;18.90;99.90;;;;;;4994580;28;20179;-84
2022/07/13 01:54:28;;;;;;;4.30;1.80;;;18.90;99.90;;;;;;4993767;28;20182;-83
2022/07/13 01:56:53;;;;;;;2.22;1.70;;;18.90;99.90;;;;;;4995034;28;20214;-84
2022/07/13 01:59:19;;;;;;;3.95;1.90;;;18.80;99.90;;;;;;4994956;28;20180;-84
2022/07/13 02:01:45;;;;;;;4.00;1.95;;;18.80;99.90;;;;;;4985730;28;20200;-84
2022/07/13 02:04:11;;;;;;;4.05;1.98;;;18.80;99.90;;;;;;4975318;28;20481;-83
2022/07/13 02:06:37;;;;;;;3.45;1.88;;;18.80;99.90;;;;;;4973830;28;20212;-83
2022/07/13 02:09:03;;;;;;;3.72;2.00;;;18.70;99.90;;;;;;4974093;28;20223;-84
2022/07/13 02:11:29;;;;;;;3.03;1.80;;;18.70;99.90;;;;;;4975411;28;20224;-83
2022/07/13 02:13:55;;;;;;;2.78;1.88;;;18.70;99.90;;;;;;4975260;28;20300;-84
2022/07/13 02:16:21;;;;;;;5.07;2.13;;;18.70;99.90;;;;;;4973979;28;20297;-83
2022/07/13 02:18:47;;;;;;;3.28;2.20;;;18.70;99.90;;;;;;4977234;28;20260;-84
2022/07/13 02:21:13;;;;;;;4.72;2.30;;;18.70;99.90;;;;;;4994399;28;20203;-85
2022/07/13 02:23:39;;;;;;;3.30;2.15;;;18.70;99.90;;;;;;4994510;28;20591;-84
2022/07/13 02:26:06;;;;;;;3.47;2.15;;;18.70;99.90;;;;;;4993147;28;20220;-84
2022/07/13 02:28:32;;;;;;;5.13;2.15;;;18.70;99.90;;;;;;4994527;28;20178;-83
2022/07/13 02:30:58;;;;;;;7.05;2.58;;;18.70;99.90;;;;;;4993350;28;20263;-84
2022/07/13 02:33:23;;;;;;;2.65;1.90;;;18.60;99.90;;;;;;4994444;28;20254;-85
2022/07/13 02:35:49;;;;;;;3.10;2.15;;;18.60;99.90;;;;;;4994155;28;20556;-84
2022/07/13 02:38:15;;;;;;;2.40;2.00;;;18.60;99.90;;;;;;4994470;28;20176;-84
2022/07/13 02:40:41;;;;;;;3.25;1.88;;;18.70;99.90;;;;;;4980953;28;20220;-84
2022/07/13 02:43:07;;;;;;;3.53;2.38;;;18.60;99.90;;;;;;4975092;28;20165;-83
2022/07/13 02:45:33;;;;;;;4.80;2.22;;;18.60;99.90;;;;;;4974770;28;20173;-84
2022/07/13 02:47:59;;;;;;;3.20;2.00;;;18.60;99.90;;;;;;4973651;28;20608;-85
2022/07/13 02:50:24;;;;;;;2.70;2.03;;;18.60;99.90;;;;;;4989975;28;20674;-84
2022/07/13 02:52:52;;;;;;;3.70;2.13;;;18.60;99.90;;;;;;4994220;28;20183;-83
2022/07/13 02:55:18;;;;;;;3.25;2.20;;;18.60;99.90;;;;;;4994444;28;20168;-83
2022/07/13 02:57:43;;;;;;;3.28;1.92;;;18.60;99.90;;;;;;4993082;28;20179;-84
2022/07/13 03:00:09;;;;;;;3.25;2.30;;;18.60;99.90;;;;;;4993014;28;20484;-84
2022/07/13 03:02:35;;;;;;;7.57;2.03;;;18.60;99.90;;;;;;4995628;28;20271;-83
2022/07/13 03:05:02;;;;;;;2.92;2.00;;;18.60;99.90;;;;;;4996804;28;20267;-84
2022/07/13 03:07:27;;;;;;;3.08;1.77;;;18.60;99.90;;;;;;4996553;28;20218;-85
2022/07/13 03:09:53;;;;;;;3.65;2.28;;;18.70;99.90;;;;;;4998227;28;20172;-85
2022/07/13 03:12:19;;;;;;;2.47;1.67;;;18.70;99.90;;;;;;4996810;28;20222;-85
2022/07/13 03:14:45;;;;;;;3.35;2.10;;;18.70;99.90;;;;;;4996805;28;20219;-83
2022/07/13 03:17:10;;;;;;;3.60;2.17;;;18.70;99.90;;;;;;4997664;28;20212;-84
2022/07/13 03:19:36;;;;;;;2.90;1.70;;;18.70;99.90;;;;;;4996734;28;20321;-84
2022/07/13 03:22:03;;;;;;;2.65;2.13;;;18.70;99.90;;;;;;4996521;28;20266;-85
2022/07/13 03:24:29;;;;;;;4.95;2.10;;;18.70;99.90;;;;;;4996512;28;20219;-85
2022/07/13 03:26:55;;;;;;;3.45;2.00;;;18.70;99.90;;;;;;4995883;28;20267;-84
2022/07/13 03:29:21;;;;;;;3.97;2.33;;;18.70;99.90;;;;;;4997964;28;20168;-85
2022/07/13 03:31:46;;;;;;;3.45;2.15;;;18.70;99.90;;;;;;4997640;28;20196;-85
2022/07/13 03:34:12;;;;;;;3.05;2.13;;;18.70;99.90;;;;;;4996425;28;20259;-85
2022/07/13 03:36:38;;;;;;;2.22;1.80;;;18.70;99.90;;;;;;4996199;28;20184;-86
2022/07/13 03:39:04;;;;;;;4.28;1.90;;;18.70;99.90;;;;;;4997683;28;20207;-86
2022/07/13 03:41:29;;;;;;;2.35;1.98;;;18.70;99.90;;;;;;4990174;28;20184;-86
2022/07/13 03:43:55;;;;;;;2.90;1.60;;;18.70;99.90;;;;;;4977892;28;20169;-85
2022/07/13 03:46:21;;;;;;;4.28;1.80;;;18.80;99.90;;;;;;4976421;28;20251;-86
2022/07/13 03:48:46;;;;;;;4.70;1.85;;;18.70;99.90;;;;;;4978481;28;20191;-86
2022/07/13 03:51:12;;;;;;;2.25;1.48;;;18.70;99.90;;;;;;4995930;28;20188;-87
2022/07/13 03:53:38;;;;;;;2.78;1.60;;;18.70;99.90;;;;;;4997441;28;20171;-86
2022/07/13 03:56:04;;;;;;;2.00;1.77;;;18.80;99.90;;;;;;4996420;28;20191;-86
2022/07/13 03:58:30;;;;;;;2.28;1.95;;;18.80;99.90;;;;;;4997255;28;20183;-85
2022/07/13 04:00:56;;;;;;;2.85;1.80;;;18.90;99.90;;;;;;4997195;28;20183;-85
2022/07/13 04:03:22;;;;;;;3.08;2.05;;;18.90;99.90;;;;;;4996291;28;20274;-84
2022/07/13 04:05:48;;;;;;;3.45;1.95;;;18.90;99.90;;;;;;4995929;28;20254;-85
2022/07/13 04:08:13;;;;;;;2.63;2.15;;;18.90;99.90;;;;;;4997647;28;20176;-87
2022/07/13 04:10:39;;;;;;;3.42;2.10;;;18.90;99.90;;;;;;4997148;28;20725;-89
2022/07/13 04:13:14;;;;;;;4.35;2.30;;;18.90;99.90;;;;;;4997306;28;20295;-86
2022/07/13 04:15:39;;;;;;;2.92;2.20;;;18.90;99.90;;;;;;4997316;28;20541;-88
2022/07/13 04:18:05;;;;;;;2.85;2.00;;;18.90;99.90;;;;;;4995967;28;20705;-87
2022/07/13 04:20:31;;;;;;;2.45;2.03;;;18.90;99.90;;;;;;5013468;28;20179;-87
2022/07/13 04:22:58;;;;;;;2.30;2.00;;;18.90;99.90;;;;;;5016556;28;20186;-87
2022/07/13 04:25:24;;;;;;;2.78;1.70;;;18.90;99.90;;;;;;5015367;28;20314;-88
2022/07/13 04:27:50;;;;;;;2.22;1.80;;;18.90;99.90;;;;;;5015336;28;20202;-86
2022/07/13 04:30:16;;;;;;;2.85;1.85;;;18.90;99.90;;;;;;5015127;28;20171;-87
2022/07/13 04:32:42;;;;;;;2.05;1.52;;;19.00;99.90;;;;;;5015416;28;20180;-87
2022/07/13 04:35:08;;;;;;;4.45;2.03;;;19.00;99.90;;;;;;5016476;28;20168;-89
2022/07/13 04:37:35;;;;;;;2.22;1.67;;;19.00;99.90;;;;;;5015018;28;20180;-84
2022/07/13 04:40:01;;;;;;;2.08;1.30;;;19.00;99.90;;;;;;5015288;28;20179;-88
2022/07/13 04:42:27;;;;;;;1.52;1.42;;;19.00;99.90;;;;;;5016436;28;20221;-89
2022/07/13 04:44:53;;;;;;;2.03;1.48;;;19.10;99.90;;;;;;5015218;28;20648;-85
2022/07/13 04:47:18;;;;;;;2.03;1.50;;;19.10;99.90;;;;;;4996673;28;20211;-84
2022/07/13 04:49:44;;;;;;;1.73;1.30;;;19.20;99.90;;;;;;4996704;28;20232;-86
2022/07/13 04:52:10;;;;;;;2.90;1.40;;;19.20;99.90;;;;;;4995235;28;20207;-87
2022/07/13 04:54:36;;;;;;;2.35;1.50;;;19.20;99.90;;;;;;4995473;28;20172;-88
2022/07/13 04:57:01;;;;;;;4.10;1.42;;;19.30;99.90;;;;;;4996665;28;20198;-88
2022/07/13 04:59:27;;;;;;;1.50;1.40;;;19.30;99.90;;;;;;4995657;28;20178;-87
2022/07/13 05:01:54;;;;;;;2.85;1.65;;;19.30;99.90;;;;;;4996511;28;20262;-87
2022/07/13 05:04:20;;;;;;;2.22;1.20;;;19.40;99.90;;;;;;4996374;28;20503;-89
2022/07/13 05:06:45;;;;;;;1.38;1.20;;;19.40;99.90;;;;;;4994945;28;20212;-88
2022/07/13 05:09:11;;;;;;;2.00;1.05;;;19.50;99.90;;;;;;4995425;28;20172;-87
2022/07/13 05:11:37;;;;;;;2.50;1.23;;;19.60;99.90;;;;;;4995136;28;20191;-87
2022/07/13 05:14:02;;;;;;;3.72;1.10;;;19.60;99.90;;;;;;4996251;28;20215;-88
2022/07/13 05:16:28;;;;;;;1.80;1.20;;;19.60;99.90;;;;;;4996250;28;20204;-88
2022/07/13 05:18:56;;;;;;;1.30;1.05;;;19.70;99.90;;;;;;4995144;28;20232;-87
2022/07/13 05:21:22;;;;;;;2.47;1.40;;;19.70;99.90;;;;;;4991640;28;20679;-87
2022/07/13 05:23:48;;;;;;;4.05;1.42;;;19.80;99.90;;;;;;4975339;28;20192;-87
2022/07/13 05:26:14;;;;;;;2.97;1.30;;;19.80;99.90;;;;;;4975925;28;20212;-86
2022/07/13 05:28:40;;;;;;;1.35;1.05;;;19.80;99.90;;;;;;4975616;28;20181;-86
2022/07/13 05:31:05;;;;;;;1.92;1.45;;;19.90;99.90;;;;;;4975240;28;20632;-86
2022/07/13 05:33:32;;;;;;;1.40;1.10;;;19.90;99.90;;;;;;4974652;28;20218;-86
2022/07/13 05:36:01;;;;;;;1.90;1.17;;;20.00;99.90;;;;;;4975868;28;20165;-85
2022/07/13 05:38:27;;;;;;;2.50;1.00;;;20.00;99.90;;;;;;4976071;28;20195;-87
2022/07/13 05:40:53;;;;;;;2.65;1.20;;;20.00;99.90;;;;;;4995280;28;20615;-87
2022/07/13 05:43:19;;;;;;;1.55;1.23;;;20.10;99.90;;;;;;4995038;28;20262;-86
2022/07/13 05:45:45;;;;;;;1.25;1.15;;;20.20;99.90;;;;;;4996024;28;20287;-84
2022/07/13 05:48:10;;;;;;;2.03;1.17;;;20.20;99.90;;;;;;4995201;28;20238;-84
2022/07/13 05:50:36;;;;;;;3.55;1.02;;;20.40;99.90;;;;;;4976931;28;20220;-84
2022/07/13 05:53:02;;;;;;;1.40;1.30;;;20.40;99.90;;;;;;4989021;28;20592;-83
2022/07/13 05:55:27;;;;;;;3.50;1.10;;;20.50;99.90;;;;;;4975715;28;20514;-84
2022/07/13 05:57:53;;;;;;;1.90;1.02;;;20.50;99.90;;;;;;4975496;28;20180;-85
2022/07/13 06:00:20;;;;;;;2.88;1.10;;;20.50;99.90;;;;;;4993563;28;20179;-85
2022/07/13 06:02:46;;;;;;;1.73;1.15;;;20.60;99.90;;;;;;4995116;28;20187;-85
2022/07/13 06:05:11;;;;;;;2.15;0.90;;;20.60;99.90;;;;;;4993907;28;20270;-85
2022/07/13 06:07:37;;;;;;;2.75;1.10;;;20.70;99.90;;;;;;4990224;28;20283;-84
2022/07/13 06:10:07;;;;;;;4.75;1.30;;;20.80;99.90;;;;;;4975070;28;20177;-85
2022/07/13 06:12:33;;;;;;;0.90;0.80;;;20.80;99.90;;;;;;4975385;28;20256;-85
2022/07/13 06:14:58;;;;;;;2.45;1.00;;;20.90;99.90;;;;;;4975325;28;20180;-85
2022/07/13 06:17:25;;;;;;;5.18;0.98;;;21.00;99.90;;;;;;4975269;28;20231;-86
2022/07/13 06:19:51;;;;;;;1.17;1.00;;;21.00;99.80;;;;;;4975601;28;20231;-85
2022/07/13 06:22:17;;;;;;;1.55;1.00;;;21.10;99.60;;;;;;4986844;28;20175;-88
2022/07/13 06:24:43;;;;;;;1.70;1.05;;;21.10;99.70;;;;;;4994617;28;20183;-83
2022/07/13 06:27:09;;;;;;;3.92;0.98;;;21.10;99.50;;;;;;4993606;28;20290;-86
2022/07/13 06:29:35;;;;;;;1.77;0.88;;;21.20;99.30;;;;;;4994913;28;20535;-84
2022/07/13 06:32:01;;;;;;;1.20;1.10;;;21.20;99.30;;;;;;4993477;28;20180;-85
2022/07/13 06:34:27;;;;;;;1.70;1.00;;;21.20;99.40;;;;;;4994651;28;20532;-86
2022/07/13 06:36:53;;;;;;;3.58;1.00;;;21.30;99.10;;;;;;4994876;28;20180;-87
2022/07/13 06:39:19;;;;;;;0.80;0.70;;;21.40;98.90;;;;;;4997712;28;20296;-88
2022/07/13 06:41:45;;;;;;;1.25;0.75;;;21.50;98.00;;;;;;4998758;28;20235;-84
2022/07/13 06:44:11;;;;;;;1.25;0.88;;;21.60;98.50;;;;;;4998967;28;20175;-84
2022/07/13 06:46:37;;;;;;;1.63;0.93;;;21.70;98.30;;;;;;4998749;28;20234;-85
2022/07/13 06:49:03;;;;;;;1.35;0.80;;;21.80;98.20;;;;;;4997609;28;20204;-85
2022/07/13 06:51:29;;;;;;;5.50;1.90;;;21.90;98.00;;;;;;4998216;28;20561;-90
2022/07/13 06:53:55;;;;;;;1.27;0.93;;;21.90;97.70;;;;;;4997486;28;20171;-85
2022/07/13 06:56:20;;;;;;;1.42;0.75;;;22.10;97.30;;;;;;4998576;28;20214;-84
2022/07/13 06:58:47;;;;;;;1.67;1.00;;;22.20;97.10;;;;;;4998524;28;20172;-87
2022/07/13 07:01:13;;;;;;;3.70;0.90;;;22.20;96.90;;;;;;4997477;28;20222;-88
2022/07/13 07:03:41;;;;;;;4.32;1.02;;;22.40;97.30;;;;;;4997221;28;20214;-89
2022/07/13 07:06:07;;;;;;;1.35;1.00;;;22.50;96.90;;;;;;4995879;28;20196;-85
2022/07/13 07:08:34;;;;;;;1.15;0.80;;;22.70;96.90;;;;;;4998250;28;20322;-86
2022/07/13 07:11:00;;;;;;;1.63;0.93;;;22.80;96.40;;;;;;4998247;28;20211;-86
2022/07/13 07:13:26;;;;;;;1.35;0.73;;;22.80;96.10;;;;;;4996971;28;20231;-89
2022/07/13 07:15:52;;;;;;;2.50;0.80;;;23.00;95.80;;;;;;4997079;28;20176;-86
2022/07/13 07:18:21;;;;;;;1.77;0.80;;;23.00;95.90;;;;;;4996794;28;20239;-89
2022/07/13 07:20:47;;;;;;;2.72;0.82;;;23.10;96.60;;;;;;4997032;28;20654;-87
2022/07/13 07:23:14;;;;;;;2.85;0.90;;;23.10;96.30;;;;;;4996621;28;20615;-85
2022/07/13 07:25:40;;;;;;;2.08;1.10;;;23.20;96.40;;;;;;4998017;28;20595;-86
2022/07/13 07:28:07;;;;;;;1.63;0.80;;;23.40;95.70;;;;;;4996761;28;20192;-85
2022/07/13 07:30:32;;;;;;;1.30;1.05;;;23.60;95.60;;;;;;4998241;28;20199;-84
2022/07/13 07:32:58;;;;;;;1.10;1.00;;;23.80;95.70;;;;;;4996180;28;20588;-87
2022/07/13 07:35:23;;;;;;;2.78;1.13;;;23.90;95.40;;;;;;4993391;28;20198;-84
2022/07/13 07:37:49;;;;;;;2.28;1.00;;;23.90;95.30;;;;;;4997376;28;20164;-85
2022/07/13 07:40:15;;;;;;;3.00;1.15;;;23.90;95.10;;;;;;4981492;28;20276;-85
2022/07/13 07:42:40;;;;;;;2.67;1.00;;;24.00;95.10;;;;;;4978455;28;20218;-84
2022/07/13 07:45:08;;;;;;;1.45;0.90;;;24.00;95.50;;;;;;4976691;28;20263;-84
2022/07/13 07:47:34;;;;;;;4.22;1.00;;;24.20;95.80;;;;;;4976531;28;20303;-87
2022/07/13 07:50:00;;;;;;;2.17;0.93;;;24.30;94.10;;;;;;4990026;28;20207;-84
2022/07/13 07:52:26;;;;;;;4.68;0.90;;;24.40;93.70;;;;;;5005326;28;20230;-85
2022/07/13 07:54:51;;;;;;;1.58;0.88;;;24.40;93.80;;;;;;5004174;28;20610;-84
2022/07/13 07:57:17;;;;;;;2.45;0.90;;;24.70;93.40;;;;;;5008506;28;20175;-86
2022/07/13 07:59:43;;;;;;;2.45;1.05;;;24.80;93.80;;;;;;5016823;28;20183;-83
2022/07/13 08:02:09;;;;;;;2.13;1.13;;;24.80;94.10;;;;;;5016485;28;20187;-86
2022/07/13 08:04:35;;;;;;;1.67;1.00;;;24.90;92.90;;;;;;5015118;28;20243;-86
2022/07/13 08:07:01;;;;;;;3.10;0.88;;;25.10;92.60;;;;;;5010957;28;20289;-86
2022/07/13 08:09:27;;;;;;;4.65;1.38;;;25.20;91.70;;;;;;5010810;28;20182;-85
2022/07/13 08:11:53;;;;;;;1.45;0.85;;;25.20;92.80;;;;;;5014751;28;20186;-85
2022/07/13 08:14:19;;;;;;;3.00;1.13;;;25.20;92.50;;;;;;5016299;28;20175;-86
2022/07/13 08:16:44;;;;;;;1.92;1.20;;;25.40;93.00;;;;;;5016351;28;20171;-85
2022/07/13 08:19:10;;;;;;;1.40;0.80;;;25.60;92.20;;;;;;5015610;28;20202;-88
2022/07/13 08:21:36;;;;;;;5.38;0.90;;;25.70;92.20;;;;;;5016003;28;20318;-88
2022/07/13 08:24:02;;;;;;;1.98;0.90;;;25.70;92.90;;;;;;5014074;28;20199;-91
2022/07/13 08:26:30;;;;;;;1.58;0.75;;;25.70;91.10;;;;;;4989382;28;20227;-87
2022/07/13 08:28:57;;;;;;;1.15;0.70;;;26.00;91.30;;;;;;4988569;28;20173;-91
2022/07/13 08:31:24;;;;;;;3.67;0.88;;;26.30;89.50;;;;;;4985359;28;20179;-88
2022/07/13 08:39:23;;;;;;;2.55;0.90;;;26.40;84.90;;;;;;4992592;28;20190;-89
2022/07/13 08:41:49;;;;;;;2.95;1.00;;;26.30;88.40;;;;;;4979789;28;20315;-89
2022/07/13 08:44:15;;;;;;;3.55;0.90;;;26.30;88.60;;;;;;4982360;28;20255;-86
2022/07/13 08:46:41;;;;;;;2.75;1.00;;;26.40;90.30;;;;;;4977559;28;20217;-86
2022/07/13 08:49:08;;;;;;;2.95;1.10;;;26.30;89.80;;;;;;4981837;28;20168;-90
2022/07/13 08:51:34;;;;;;;3.80;1.00;;;26.40;88.90;;;;;;4995599;28;20176;-86
2022/07/13 08:54:02;;;;;;;11.70;1.73;;;26.30;88.50;;;;;;4996553;28;20178;-84
2022/07/13 08:56:28;;;;;;;10.50;1.65;;;26.30;89.80;;;;;;4996379;28;20176;-85
2022/07/13 08:58:54;;;;;;;12.50;1.67;;;26.40;89.30;;;;;;4996239;28;20168;-86
2022/07/13 09:01:20;;;;;;;7.28;1.35;;;26.40;90.30;;;;;;4995496;28;20172;-85
2022/07/13 09:03:46;;;;;;;1.30;0.90;;;26.60;89.80;;;;;;4990711;28;20215;-88
2022/07/13 09:06:45;;;;;;;1.27;0.95;;;26.70;88.90;;;;;;4977659;28;20207;-88
2022/07/13 09:09:35;;;;;;;3.17;0.90;;;26.70;86.90;;;;;;4977912;28;20191;-84
2022/07/13 09:12:16;;;;;;;2.53;1.10;;;26.70;86.80;;;;;;4993973;28;20211;-85
2022/07/13 09:14:58;;;;;;;1.38;0.80;;;26.80;87.60;;;;;;4994728;28;20179;-88
2022/07/13 09:17:37;;;;;;;1.50;0.98;;;26.80;87.50;;;;;;4982594;28;20678;-83
2022/07/13 09:20:12;;;;;;;3.72;1.10;;;26.90;85.20;;;;;;4976031;28;20212;-85
2022/07/13 09:22:53;;;;;;;1.67;0.82;;;26.90;88.30;;;;;;4989193;28;20618;-85
2022/07/13 09:25:32;;;;;;;16.85;1.40;;;27.00;88.50;;;;;;4986558;28;20184;-85
2022/07/13 09:28:08;;;;;;;1.08;0.93;;;27.00;89.20;;;;;;4976371;28;20187;-88
2022/07/13 09:30:36;;;;;;;3.97;1.00;;;27.00;87.70;;;;;;4975783;28;20165;-91
2022/07/13 09:33:03;;;;;;;3.53;1.20;;;27.10;85.20;;;;;;4977437;28;20188;-87
2022/07/13 09:35:50;;;;;;;1.10;0.90;;;27.20;84.80;;;;;;5009169;28;20371;-85
2022/07/13 09:38:43;;;;;;;3.90;1.10;;;27.20;85.70;;;;;;4983991;28;20203;-88
2022/07/13 09:41:17;;;;;;;1.10;1.00;;;27.40;83.80;;;;;;5013578;28;20187;-84
2022/07/13 09:47:04;;;;;;;2.92;1.30;;;27.60;83.80;;;;;;4998713;28;20219;-89
2022/07/13 09:49:35;;;;;;;5.25;0.98;;;27.70;84.40;;;;;;5012282;28;20265;-89
2022/07/13 09:52:04;;;;;;;1.40;1.30;;;27.80;83.90;;;;;;4986497;28;20196;-88
2022/07/13 09:54:31;;;;;;;2.65;1.08;;;28.00;83.90;;;;;;4974876;28;20180;-88
2022/07/13 09:57:03;;;;;;;2.22;1.27;;;28.00;83.00;;;;;;4981187;28;20182;-88
2022/07/13 09:59:31;;;;;;;5.72;1.10;;;28.10;83.80;;;;;;4986556;28;20226;-88
2022/07/13 10:01:57;;;;;;;1.52;1.00;;;28.20;82.80;;;;;;4985705;28;20176;-87
2022/07/13 10:04:24;;;;;;;1.42;0.82;;;28.20;83.60;;;;;;4995359;28;20168;-89
2022/07/13 10:06:51;;;;;;;2.08;1.23;;;28.00;82.90;;;;;;4994808;28;20234;-86
2022/07/13 10:12:12;;;;;;;1.55;1.00;;;28.00;85.50;;;;;;4986073;28;20191;-84
2022/07/13 10:14:39;;;;;;;1.48;0.98;;;28.00;83.10;;;;;;4993487;28;20604;-84
2022/07/13 10:17:06;;;;;;;1.15;0.90;;;28.10;84.40;;;;;;4993290;28;20224;-84
2022/07/13 10:19:33;;;;;;;2.35;1.35;;;28.30;82.70;;;;;;4995397;28;20247;-90
2022/07/13 10:22:12;;;;;;;1.38;1.00;;;28.50;83.40;;;;;;4994884;28;20191;-84
2022/07/13 10:24:53;;;;;;;3.70;1.10;;;28.70;82.10;;;;;;4992803;28;20180;-88
2022/07/13 10:27:25;;;;;;;1.30;0.98;;;28.90;82.50;;;;;;4991277;28;20735;-85
2022/07/13 10:29:55;;;;;;;1.63;1.20;;;29.10;81.20;;;;;;4983201;28;20188;-85
2022/07/13 10:32:26;;;;;;;3.35;1.10;;;29.10;78.80;;;;;;4975777;28;20184;-89
2022/07/13 10:35:02;;;;;;;2.50;1.40;;;29.00;79.50;;;;;;4974480;28;20215;-88
2022/07/13 10:37:56;;;;;;;1.40;1.08;;;28.90;80.90;;;;;;4983515;28;20705;-86
2022/07/13 10:40:23;;;;;;;4.30;1.45;;;28.90;80.40;;;;;;4947759;28;20193;-87
2022/07/13 10:42:55;;;;;;;1.85;1.30;;;28.70;77.60;;;;;;4975689;28;20176;-90
2022/07/13 10:45:40;;;;;;;5.15;1.10;;;28.50;80.00;;;;;;4974842;28;20556;-85
2022/07/13 10:48:16;;;;;;;3.70;1.17;;;28.40;79.80;;;;;;4973362;28;20303;-83
2022/07/13 10:50:51;;;;;;;2.42;1.20;;;28.10;79.50;;;;;;4980037;28;20209;-83
2022/07/13 10:53:17;;;;;;;1.85;1.00;;;28.00;79.90;;;;;;4984717;28;20201;-88
2022/07/13 10:55:47;;;;;;;2.22;1.00;;;27.80;80.10;;;;;;5014011;28;20492;-88
2022/07/13 10:58:31;;;;;;;3.15;1.38;;;27.70;81.90;;;;;;5014824;28;20553;-88
2022/07/13 11:00:59;;;;;;;2.22;1.10;;;27.50;80.90;;;;;;5013749;28;20175;-88
2022/07/13 11:03:43;;;;;;;1.55;1.20;;;27.30;80.30;;;;;;5012977;28;20179;-88
2022/07/13 11:06:25;;;;;;;2.33;1.30;;;27.20;81.60;;;;;;4982485;28;20195;-90
2022/07/13 11:09:06;;;;;;;3.35;1.10;;;27.10;81.30;;;;;;5013137;28;20518;-90
2022/07/13 11:11:32;;;;;;;2.03;1.00;;;27.00;82.00;;;;;;5006992;28;20202;-88
2022/07/13 11:13:58;;;;;;;1.88;1.30;;;27.10;82.60;;;;;;5013171;28;20175;-90
2022/07/13 11:16:48;;;;;;;2.45;0.90;;;27.10;83.60;;;;;;5013938;28;20192;-85
2022/07/13 11:19:15;;;;;;;3.13;1.38;;;27.20;81.40;;;;;;5012890;28;20218;-87
2022/07/13 11:22:10;;;;;;;1.67;1.08;;;27.30;83.20;;;;;;5006312;28;20180;-89
2022/07/13 11:27:43;;;;;;;1.50;1.10;;;27.70;82.00;;;;;;5018316;28;20554;-88
2022/07/13 11:30:13;;;;;;;2.90;1.27;;;27.90;84.00;;;;;;5008645;28;20209;-86
2022/07/13 11:32:39;;;;;;;3.65;1.30;;;28.30;84.10;;;;;;5016162;28;20183;-87
2022/07/13 11:35:05;;;;;;;4.43;1.10;;;28.50;81.20;;;;;;5012205;28;20217;-88
2022/07/13 11:37:31;;;;;;;2.45;1.00;;;28.60;80.50;;;;;;4978269;28;20627;-84
2022/07/13 11:39:57;;;;;;;2.17;1.20;;;28.60;81.80;;;;;;4977238;28;20180;-87
2022/07/13 11:42:23;;;;;;;1.63;1.20;;;28.50;80.70;;;;;;5004665;28;20611;-86
2022/07/13 11:44:52;;;;;;;2.42;1.00;;;28.40;82.00;;;;;;4996649;28;20176;-85
2022/07/13 11:47:19;;;;;;;3.45;0.90;;;28.60;82.80;;;;;;4997782;28;20211;-85
2022/07/13 11:49:54;;;;;;;3.42;1.30;;;29.20;82.60;;;;;;4997021;28;20164;-84
2022/07/13 11:52:19;;;;;;;2.97;1.20;;;29.80;81.20;;;;;;4995438;28;20187;-85
2022/07/13 11:54:59;;;;;;;2.72;1.10;;;29.90;80.40;;;;;;4995213;28;20186;-85
2022/07/13 11:57:25;;;;;;;1.20;1.00;;;30.20;80.60;;;;;;4997533;28;20174;-85
2022/07/13 11:59:51;;;;;;;3.03;1.20;;;30.50;79.30;;;;;;4996721;28;20625;-87
2022/07/13 12:02:17;;;;;;;2.75;1.10;;;30.70;78.20;;;;;;4997434;28;20179;-86
2022/07/13 12:04:46;;;;;;;4.85;1.17;;;30.90;77.30;;;;;;4997236;28;20199;-86
2022/07/13 12:07:28;;;;;;;2.05;0.88;;;31.00;77.20;;;;;;4995910;28;20221;-90
2022/07/13 12:10:04;;;;;;;3.05;1.17;;;30.90;76.10;;;;;;4997430;28;20159;-88
2022/07/13 12:12:40;;;;;;;2.83;0.90;;;30.80;77.00;;;;;;4996714;28;20230;-86
2022/07/13 12:15:07;;;;;;;4.43;1.10;;;30.80;76.80;;;;;;4998902;28;20183;-88
2022/07/13 12:17:44;;;;;;;1.90;1.10;;;30.70;77.70;;;;;;4996218;28;20223;-88
2022/07/13 12:20:15;;;;;;;1.38;1.10;;;30.30;77.00;;;;;;4995273;28;20178;-84
2022/07/13 12:22:52;;;;;;;1.92;0.88;;;30.20;77.40;;;;;;4996410;28;20643;-83
2022/07/13 12:25:32;;;;;;;3.90;0.90;;;30.50;77.30;;;;;;4996274;28;20168;-86
2022/07/13 12:28:00;;;;;;;1.33;1.00;;;30.40;76.70;;;;;;4994963;28;20210;-85
2022/07/13 12:30:27;;;;;;;2.05;1.00;;;30.50;78.10;;;;;;4996139;28;20266;-86
2022/07/13 12:33:13;;;;;;;2.22;1.00;;;30.60;79.60;;;;;;4981964;28;20186;-88
2022/07/13 12:35:40;;;;;;;3.58;0.82;;;30.80;77.30;;;;;;4975926;28;20184;-88
2022/07/13 12:38:15;;;;;;;5.10;0.70;;;30.90;76.30;;;;;;4977206;28;20172;-84
2022/07/13 12:40:59;;;;;;;5.40;1.00;;;30.80;77.40;;;;;;4992066;28;20194;-88
2022/07/13 12:43:32;;;;;;;2.10;0.77;;;30.50;78.00;;;;;;4996895;28;20881;-89
2022/07/13 12:46:03;;;;;;;2.90;0.82;;;30.30;77.50;;;;;;4996802;28;20171;-86
2022/07/13 12:48:31;;;;;;;3.33;0.93;;;30.00;76.80;;;;;;4996637;28;20172;-86
2022/07/13 12:51:08;;;;;;;2.80;0.90;;;30.00;78.90;;;;;;4996644;28;20172;-89
2022/07/13 12:53:50;;;;;;;2.00;1.10;;;30.40;77.80;;;;;;4996087;28;20180;-85
2022/07/13 12:56:17;;;;;;;1.95;0.80;;;30.80;77.80;;;;;;4995537;28;20179;-85
2022/07/13 12:58:44;;;;;;;4.03;0.90;;;30.70;76.70;;;;;;4996486;28;20555;-88
2022/07/13 13:01:24;;;;;;;4.47;0.90;;;30.40;78.20;;;;;;4996691;28;20163;-86
2022/07/13 13:03:50;;;;;;;1.70;1.10;;;30.20;78.40;;;;;;4995283;28;20182;-87
2022/07/13 13:06:15;;;;;;;2.25;1.00;;;30.10;78.10;;;;;;4996263;28;20211;-85